Latest Weather Observations for Coonawarra

IDS60801

Issued at 9:31 pm CDT Saturday 6 February 2016 (issued every 30 minutes, with the page automatically refreshed every 10 minutes)

About weather observations | Map of weather stations | Latest weather observations for SA | Other Formats
Station Details ID: 026091 Name: COONAWARRA Lat: -37.29 Lon: 140.83 Height: 57.0 m
Data from the previous 72 hours. | See also: Recent months at Coonawarra
Date/Time
CDT
Temp
°C
App
Temp
°C
Dew
Point
Rel
Hum
%
Delta-T
°C
Wind Press
QNH
hPa
Press
MSL
hPa
Rain
since 9 am
mm
Dir
 
Spd
km/h
Gust
km/h
Spd
kts
Gust
kts
06/09:30pm 22.3 20.6 11.1 49 6.2 SSW 11 15 6 8 1015.5 1015.3 0.0
06/09:00pm 23.5 21.7 10.7 44 7.1 S 11 13 6 7 1015.1 1014.9 0.0
06/08:30pm 25.3 22.6 10.4 39 8.3 S 15 24 8 13 1014.6 1014.4 0.0
06/08:00pm 27.0 24.0 10.5 35 9.3 S 17 24 9 13 1014.2 1014.0 0.0
06/07:30pm 28.4 24.8 10.4 32 10.2 SSW 20 28 11 15 1013.7 1013.5 0.0
06/07:00pm 30.0 26.3 10.1 29 11.3 SSW 20 26 11 14 1013.2 1013.0 0.0
06/06:30pm 31.0 26.3 9.1 25 12.3 SSW 24 35 13 19 1012.9 1012.7 0.0
06/06:00pm 31.4 26.6 8.9 24 12.6 SSW 24 33 13 18 1012.7 1012.5 0.0
06/05:30pm 32.0 27.3 9.1 24 12.9 SW 24 43 13 23 1012.4 1012.2 0.0
06/05:00pm 33.2 28.1 9.3 23 13.6 SW 26 43 14 23 1012.3 1012.1 0.0
06/04:59pm 33.1 28.4 9.4 23 13.5 SSW 24 43 13 23 1012.3 1012.1 0.0
06/04:30pm 33.5 31.1 7.2 19 14.5 W 9 20 5 11 1012.3 1012.1 0.0
06/04:00pm 34.3 31.5 6.9 18 15.1 S 11 20 6 11 1012.5 1012.3 0.0
06/03:30pm 34.0 31.0 5.9 17 15.2 W 11 19 6 10 1012.9 1012.7 0.0
06/03:00pm 34.3 32.9 9.0 21 14.4 NW 6 13 3 7 1013.3 1013.1 0.0
06/02:30pm 33.6 30.3 8.0 20 14.3 WSW 15 24 8 13 1013.6 1013.4 0.0
06/02:00pm 33.1 31.4 8.2 21 13.9 W 7 19 4 10 1013.9 1013.7 0.0
06/01:30pm 33.4 30.3 8.8 22 13.9 WNW 15 20 8 11 1014.3 1014.1 0.0
06/01:00pm 32.4 29.8 9.5 24 13.0 W 13 19 7 10 1014.6 1014.4 0.0
06/12:30pm 31.9 29.4 9.8 25 12.6 W 13 30 7 16 1015.1 1014.9 0.0
06/12:00pm 30.9 29.2 10.0 27 11.9 W 9 13 5 7 1015.4 1015.2 0.0
06/11:30am 29.9 28.4 10.4 29 11.1 NNW 9 15 5 8 1015.9 1015.8 0.0
06/11:00am 29.0 28.0 11.0 32 10.3 N 7 11 4 6 1016.2 1016.1 0.0
06/10:30am 27.7 26.5 11.7 37 9.2 N 9 15 5 8 1016.3 1016.2 0.0
06/10:00am 26.3 24.7 11.6 40 8.4 NNE 11 17 6 9 1016.3 1016.2 0.0
06/09:30am 24.0 23.3 13.3 51 6.2 NE 9 13 5 7 1016.3 1016.2 0.0
06/09:00am 21.9 21.6 13.4 58 4.9 ENE 7 11 4 6 1016.4 1016.3 0.0
06/08:30am 19.5 19.4 13.9 70 3.2 ESE 7 11 4 6 1016.4 1016.3 0.0
06/08:00am 17.3 16.7 13.6 79 2.1 ESE 9 11 5 6 1016.2 1016.1 0.0
06/07:30am 15.8 15.5 13.3 85 1.4 SE 7 9 4 5 1016.1 1016.0 0.0
06/07:00am 14.2 14.0 12.9 92 0.7 SE 6 7 3 4 1015.8 1015.6 0.0
06/06:30am 13.0 12.2 11.7 92 0.7 SSE 7 9 4 5 1015.4 1015.2 0.0
06/06:00am 13.7 13.4 12.6 93 0.6 SE 6 9 3 5 1015.0 1014.8 0.0
06/05:30am 14.2 13.8 12.9 92 0.7 ESE 7 9 4 5 1014.9 1014.7 0.0
06/05:00am 13.6 13.0 12.3 92 0.7 SE 7 9 4 5 1014.7 1014.5 0.0
06/04:30am 13.8 13.4 12.5 92 0.7 SE 6 9 3 5 1014.9 1014.7 0.0
06/04:00am 15.2 14.6 13.6 90 0.9 SE 9 13 5 7 1015.0 1014.8 0.0
06/03:30am 15.0 14.9 13.8 92 0.7 ESE 7 11 4 6 1015.0 1014.8 0.0
06/03:00am 15.4 15.0 14.0 91 0.8 SE 9 11 5 6 1015.2 1015.0 0.0
06/02:30am 15.8 15.4 14.2 90 0.9 SE 9 13 5 7 1015.5 1015.3 0.0
06/02:00am 16.2 15.9 14.5 90 1.0 SSE 9 11 5 6 1015.8 1015.6 0.0
06/01:30am 16.4 16.2 14.7 90 1.0 SSE 9 13 5 7 1016.1 1016.0 0.0
06/01:00am 17.0 16.4 14.6 86 1.4 SE 11 17 6 9 1016.2 1016.1 0.0
06/12:30am 17.4 16.4 14.6 83 1.6 SSE 13 20 7 11 1016.4 1016.3 0.0
06/12:00am 17.8 16.3 14.3 80 2.0 SSE 15 20 8 11 1016.6 1016.5 0.0
 
Date/Time
CDT
Temp
°C
App
Temp
°C
Dew
Point
Rel
Hum
%
Delta-T
°C
Wind Press
QNH
hPa
Press
MSL
hPa
Rain
since 9 am
mm
Dir
 
Spd
km/h
Gust
km/h
Spd
kts
Gust
kts
05/11:30pm 18.3 16.8 14.3 77 2.3 SSE 15 20 8 11 1016.7 1016.6 0.0
05/11:00pm 18.8 17.3 14.3 75 2.6 SSE 15 20 8 11 1017.0 1016.9 0.0
05/10:30pm 19.5 17.6 14.1 71 3.1 SSE 17 28 9 15 1017.1 1017.0 0.0
05/10:00pm 20.0 17.6 14.3 69 3.3 SE 20 30 11 16 1017.1 1017.0 0.0
05/09:30pm 20.8 18.6 14.3 66 3.8 SSE 19 30 10 16 1017.1 1017.0 0.0
05/09:00pm 21.7 18.8 14.0 61 4.5 SSE 22 35 12 19 1016.7 1016.6 0.0
05/08:30pm 23.0 19.7 13.9 56 5.3 SSE 24 32 13 17 1016.4 1016.3 0.0
05/08:00pm 24.4 20.7 13.9 52 6.2 SSE 26 39 14 21 1016.0 1015.9 0.0
05/07:30pm 25.6 22.3 14.1 49 6.8 S 24 35 13 19 1015.5 1015.3 0.0
05/07:00pm 26.4 22.3 13.9 46 7.4 S 28 39 15 21 1015.1 1014.9 0.0
05/06:30pm 27.4 23.6 13.6 42 8.2 SSW 26 39 14 21 1014.8 1014.6 0.0
05/06:00pm 29.4 25.7 12.6 35 9.9 S 24 37 13 20 1014.7 1014.5 0.0
05/05:30pm 30.5 27.4 9.0 26 12.0 SE 15 22 8 12 1014.8 1014.6 0.0
05/05:00pm 31.1 28.9 9.2 25 12.3 SE 11 26 6 14 1014.8 1014.6 0.0
05/04:30pm 31.1 28.3 8.7 25 12.5 ESE 13 24 7 13 1015.2 1015.0 0.0
05/04:00pm 30.3 27.4 8.1 25 12.2 SSE 13 20 7 11 1015.4 1015.2 0.0
05/03:30pm 30.2 27.6 9.3 27 11.7 ESE 13 20 7 11 1015.9 1015.8 0.0
05/03:00pm 29.0 27.1 9.2 29 11.0 SSE 9 17 5 9 1016.4 1016.3 0.0
05/02:30pm 29.5 27.3 9.2 28 11.3 SSE 11 30 6 16 1016.9 1016.8 0.0
05/02:00pm 28.3 26.6 9.7 31 10.4 NE 9 19 5 10 1017.4 1017.3 0.0
05/01:30pm 27.3 26.1 10.4 34 9.5 WSW 7 13 4 7 1017.7 1017.6 0.0
05/01:00pm 26.2 24.2 10.0 36 9.0 NE 11 19 6 10 1018.2 1018.1 0.0
05/12:30pm 25.5 23.1 10.2 38 8.5 E 13 20 7 11 1018.7 1018.6 0.0
05/12:00pm 25.0 22.8 10.7 40 8.0 E 13 20 7 11 1019.1 1019.0 0.0
05/11:30am 23.4 20.8 10.8 45 7.0 SE 15 20 8 11 1019.4 1019.3 0.0
05/11:00am 23.1 20.1 10.6 45 6.9 SE 17 24 9 13 1019.7 1019.6 0.0
05/10:30am 21.5 18.1 10.7 50 5.9 SE 19 26 10 14 1020.0 1019.9 0.0
05/10:00am 20.6 17.0 10.5 52 5.5 ESE 20 32 11 17 1020.2 1020.1 0.0
05/09:30am 19.5 15.2 10.6 56 4.8 ESE 24 37 13 20 1020.3 1020.2 0.0
05/09:00am 17.7 12.5 10.2 61 4.0 SE 28 43 15 23 1020.6 1020.5 0.0
05/08:30am 17.0 12.5 10.0 63 3.7 SE 24 39 13 21 1020.7 1020.6 0.0
05/08:00am 16.1 12.2 9.6 65 3.4 SE 20 30 11 16 1020.5 1020.4 0.0
05/07:30am 15.2 11.5 9.6 69 2.9 SE 19 26 10 14 1020.3 1020.2 0.0
05/07:00am 14.1 11.6 9.6 74 2.3 SE 13 20 7 11 1020.0 1019.9 0.0
05/06:30am 13.5 10.5 9.4 76 2.1 SSE 15 24 8 13 1019.6 1019.5 0.0
05/06:00am 13.6 9.9 9.3 75 2.2 SSE 19 24 10 13 1019.5 1019.4 0.0
05/05:30am 13.7 10.3 9.2 74 2.3 SSE 17 26 9 14 1019.2 1019.1 0.0
05/05:00am 13.5 10.2 9.4 76 2.1 SSE 17 28 9 15 1019.0 1018.9 0.0
05/04:30am 13.5 9.8 9.4 76 2.1 SSE 19 28 10 15 1018.9 1018.8 0.0
05/04:00am 13.6 9.6 9.1 74 2.3 SSE 20 28 11 15 1018.9 1018.8 0.0
05/03:30am 13.3 9.5 9.2 76 2.1 SSE 19 24 10 13 1018.9 1018.8 0.0
05/03:00am 13.1 10.1 9.1 77 2.0 SE 15 20 8 11 1019.4 1019.3 0.0
05/02:30am 13.3 10.3 9.2 76 2.1 SE 15 20 8 11 1019.6 1019.5 0.0
05/02:00am 13.4 10.0 9.0 75 2.2 SE 17 24 9 13 1019.8 1019.7 0.0
05/01:30am 13.6 10.2 9.3 75 2.2 SSE 17 20 9 11 1020.2 1020.1 0.0
05/01:00am 13.8 10.4 9.3 74 2.3 SE 17 24 9 13 1020.4 1020.3 0.0
05/12:30am 13.6 11.0 9.3 75 2.2 SSE 13 17 7 9 1020.6 1020.5 0.0
05/12:00am 13.8 11.2 9.3 74 2.3 SSE 13 17 7 9 1020.6 1020.5 0.0
 
Date/Time
CDT
Temp
°C
App
Temp
°C
Dew
Point
Rel
Hum
%
Delta-T
°C
Wind Press
QNH
hPa
Press
MSL
hPa
Rain
since 9 am
mm
Dir
 
Spd
km/h
Gust
km/h
Spd
kts
Gust
kts
04/11:30pm 14.1 11.5 9.2 72 2.5 SSE 13 20 7 11 1020.8 1020.7 0.0
04/11:00pm 14.6 11.2 9.1 69 2.8 SSE 17 26 9 14 1021.0 1020.9 0.0
04/10:30pm 15.0 11.2 9.1 68 3.0 SE 19 32 10 17 1021.1 1021.0 0.0
04/10:00pm 15.5 11.1 9.1 65 3.3 SSE 22 32 12 17 1021.1 1021.0 0.0
04/09:30pm 16.2 11.4 8.8 61 3.8 SE 24 32 13 17 1020.8 1020.7 0.0
04/09:00pm 17.0 13.0 9.1 59 4.1 SE 20 32 11 17 1020.6 1020.5 0.0
04/08:30pm 17.8 13.1 9.2 57 4.5 SE 24 39 13 21 1020.2 1020.1 0.0
04/08:00pm 19.1 14.7 9.0 52 5.3 SSE 22 35 12 19 1019.6 1019.5 0.0
04/07:30pm 20.3 15.9 8.9 48 6.0 SSE 22 35 12 19 1019.4 1019.3 0.0
04/07:00pm 21.2 15.6 8.9 45 6.5 S 28 41 15 22 1018.9 1018.8 0.0
04/06:30pm 22.0 16.0 8.8 43 7.0 S 30 41 16 22 1018.5 1018.4 0.0
04/06:00pm 22.9 17.3 8.6 40 7.6 SSE 28 41 15 22 1018.5 1018.4 0.0
04/05:30pm 23.7 18.2 9.0 39 7.9 S 28 41 15 22 1018.4 1018.3 0.0
04/05:12pm 23.5 17.5 8.5 38 8.0 SSE 30 48 16 26 1018.4 1018.3 0.0
04/05:00pm 24.2 18.8 8.2 36 8.5 S 26 39 14 21 1018.5 1018.4 0.0
04/04:30pm 24.3 18.7 8.9 37 8.3 SSE 28 37 15 20 1018.7 1018.6 0.0
04/04:00pm 24.1 18.4 8.3 36 8.4 S 28 46 15 25 1018.8 1018.7 0.0
04/03:59pm 23.9 18.3 8.6 37 8.2 S 28 46 15 25 1018.8 1018.7 0.0
04/03:30pm 24.8 20.0 8.9 36 8.6 SSE 24 39 13 21 1019.0 1018.9 0.0
04/03:00pm 24.6 20.2 8.8 36 8.5 SSE 22 52 12 28 1019.2 1019.1 0.0
04/02:30pm 24.0 19.0 7.9 35 8.5 SSE 24 35 13 19 1019.4 1019.3 0.0
04/02:00pm 24.3 18.9 8.1 35 8.6 SSE 26 37 14 20 1019.8 1019.7 0.0
04/01:30pm 23.8 18.9 8.4 37 8.2 SSE 24 33 13 18 1020.0 1019.9 0.0
04/01:00pm 23.1 17.8 8.4 39 7.8 S 26 43 14 23 1020.1 1020.0 0.0
04/12:30pm 22.6 18.4 8.2 39 7.6 SSE 20 35 11 19 1020.7 1020.6 0.0
04/12:00pm 21.7 16.7 7.9 41 7.2 SSE 24 37 13 20 1020.8 1020.7 0.0
04/11:43am 21.3 15.5 7.8 41 7.0 S 28 46 15 25 1021.0 1020.9 0.0
04/11:30am 20.4 15.8 8.3 45 6.3 SSE 22 37 12 20 1021.2 1021.1 0.0
04/11:00am 20.3 15.8 8.7 47 6.1 SSE 22 37 12 20 1021.2 1021.1 0.0
04/10:30am 19.5 14.2 8.3 48 5.8 SSE 26 35 14 19 1021.2 1021.1 0.0
04/10:00am 18.5 13.1 8.2 51 5.3 SSE 26 39 14 21 1021.2 1021.1 0.0
04/09:30am 18.4 13.6 8.8 53 5.0 S 24 37 13 20 1021.3 1021.2 0.0
04/09:00am 17.6 12.4 8.7 56 4.6 SSE 26 41 14 22 1021.0 1020.9 0.0
04/08:30am 17.1 11.4 8.5 57 4.4 SSE 28 39 15 21 1020.8 1020.7 0.0
04/08:00am 16.4 11.2 8.8 60 3.9 SSE 26 43 14 23 1020.6 1020.5 0.0
04/07:56am 16.3 10.7 8.7 60 3.9 SSE 28 43 15 23 1020.5 1020.4 0.0
04/07:30am 16.0 12.9 9.0 63 3.6 SSE 15 22 8 12 1020.3 1020.2 0.0
04/07:00am 15.2 11.3 8.5 64 3.4 SSE 19 32 10 17 1020.1 1020.0 0.0
04/06:30am 15.2 11.1 8.7 65 3.3 SSE 20 33 11 18 1019.8 1019.7 0.0
04/06:00am 15.4 11.6 8.9 65 3.3 SSE 19 28 10 15 1019.6 1019.5 0.0
04/05:30am 15.1 12.0 9.0 67 3.1 S 15 24 8 13 1019.1 1019.0 0.0
04/05:00am 14.9 12.6 9.0 68 3.0 SSE 11 17 6 9 1018.7 1018.6 0.0
04/04:30am 14.4 12.1 8.9 69 2.8 S 11 15 6 8 1018.5 1018.4 0.0
04/04:00am 14.5 11.7 8.6 67 3.0 SSE 13 17 7 9 1018.4 1018.3 0.0
04/03:30am 15.0 12.2 8.7 66 3.2 SSE 13 19 7 10 1018.3 1018.2 0.0
04/03:00am 14.7 11.8 8.3 65 3.2 S 13 19 7 10 1018.2 1018.1 0.0
04/02:30am 14.9 11.7 8.3 64 3.3 SSE 15 24 8 13 1018.2 1018.1 0.0
04/02:00am 15.2 12.0 8.3 63 3.5 S 15 22 8 12 1018.3 1018.2 0.0
04/01:30am 15.7 11.7 8.2 61 3.8 SSE 19 26 10 14 1018.4 1018.3 0.0
04/01:00am 16.1 11.9 8.2 59 4.0 SSE 20 35 11 19 1018.3 1018.2 0.0
04/12:30am 16.2 12.7 8.6 60 3.9 S 17 26 9 14 1018.5 1018.4 0.0
04/12:00am 15.9 13.1 8.6 62 3.7 SSE 13 24 7 13 1018.6 1018.5 0.0
 
Date/Time
CDT
Temp
°C
App
Temp
°C
Dew
Point
Rel
Hum
%
Delta-T
°C
Wind Press
QNH
hPa
Press
MSL
hPa
Rain
since 9 am
mm
Dir
 
Spd
km/h
Gust
km/h
Spd
kts
Gust
kts
03/11:30pm 15.3 12.5 8.6 64 3.4 S 13 20 7 11 1018.7 1018.6 0.0
03/11:00pm 15.2 12.5 8.9 66 3.2 S 13 17 7 9 1018.9 1018.8 0.0
03/10:30pm 15.7 12.2 8.6 62 3.6 S 17 28 9 15 1018.9 1018.8 0.0
03/10:00pm 16.0 12.9 9.0 63 3.6 SSE 15 26 8 14 1018.7 1018.6 0.0

Other Formats:

Comma delimited format used in spreadsheet applications
http://www.bom.gov.au/fwo/IDS60801/IDS60801.94817.axf

JavaScript Object Notation format (JSON) in row-major order
http://www.bom.gov.au/fwo/IDS60801/IDS60801.94817.json